Time,TemperatureF,DewpointF,PressureIn,WindDirection,WindDirectionDegrees,WindSpeedMPH,WindSpeedGustMPH,Humidity,HourlyPrecipIn,Conditions,Clouds,dailyrainin,SoftwareType,DateUTC
2013-02-15 00:14:00,39.1,34.0,30.03,SSE,167,0.0,4.0,83,0.00,,,0.00,weatherlink.com 1.10,2013-02-15 05:14:00,
2013-02-15 00:30:00,39.5,35.0,30.02,South,169,0.0,4.0,84,0.00,,,0.00,weatherlink.com 1.10,2013-02-15 05:30:00,
2013-02-15 00:45:00,39.6,36.0,30.02,South,178,2.0,5.0,85,0.00,,,0.00,weatherlink.com 1.10,2013-02-15 05:45:00,
2013-02-15 01:00:00,39.7,36.0,30.02,South,175,1.0,5.0,86,0.00,,,0.00,weatherlink.com 1.10,2013-02-15 06:00:00,
2013-02-15 01:15:00,39.7,36.0,30.02,South,176,1.0,4.0,86,0.00,,,0.00,weatherlink.com 1.10,2013-02-15 06:15:00,
2013-02-15 01:30:00,39.8,36.0,30.02,SSE,150,0.0,5.0,86,0.00,,,0.00,weatherlink.com 1.10,2013-02-15 06:30:00,
2013-02-15 01:45:00,40.1,36.0,30.02,South,169,0.0,6.0,86,0.00,,,0.00,weatherlink.com 1.10,2013-02-15 06:45:00,
2013-02-15 02:00:00,40.0,36.0,30.02,South,170,2.0,5.0,86,0.00,,,0.00,weatherlink.com 1.10,2013-02-15 07:00:00,
2013-02-15 02:15:00,39.9,36.0,30.02,South,175,2.0,7.0,86,0.00,,,0.00,weatherlink.com 1.10,2013-02-15 07:15:00,
2013-02-15 02:30:00,39.5,36.0,30.02,SE,143,0.0,6.0,87,0.00,,,0.00,weatherlink.com 1.10,2013-02-15 07:30:00,
2013-02-15 02:45:00,39.1,36.0,30.02,South,184,1.0,4.0,88,0.00,,,0.00,weatherlink.com 1.10,2013-02-15 07:45:00,
2013-02-15 03:00:00,38.9,36.0,30.01,South,171,2.0,5.0,88,0.00,,,0.00,weatherlink.com 1.10,2013-02-15 08:00:00,
2013-02-15 03:15:00,38.6,36.0,30.01,South,180,2.0,6.0,89,0.00,,,0.00,weatherlink.com 1.10,2013-02-15 08:15:00,
2013-02-15 03:30:00,38.3,35.0,30.01,South,181,2.0,3.0,89,0.00,,,0.00,weatherlink.com 1.10,2013-02-15 08:30:00,
2013-02-15 03:45:00,38.1,35.0,30.01,South,188,1.0,4.0,89,0.00,,,0.00,weatherlink.com 1.10,2013-02-15 08:45:00,
2013-02-15 04:00:00,38.0,35.0,30.01,SSE,167,2.0,4.0,90,0.00,,,0.00,weatherlink.com 1.10,2013-02-15 09:00:00,
2013-02-15 04:15:00,37.9,35.0,30.00,South,175,0.0,3.0,90,0.00,,,0.00,weatherlink.com 1.10,2013-02-15 09:15:00,
2013-02-15 04:30:00,37.8,35.0,30.00,South,178,1.0,2.0,90,0.00,,,0.00,weatherlink.com 1.10,2013-02-15 09:30:00,
2013-02-15 04:45:00,37.6,35.0,30.00,South,178,0.0,0.0,90,0.00,,,0.00,weatherlink.com 1.10,2013-02-15 09:45:00,
2013-02-15 05:00:00,37.3,35.0,30.00,South,178,0.0,2.0,90,0.00,,,0.00,weatherlink.com 1.10,2013-02-15 10:00:00,
2013-02-15 05:15:00,37.2,35.0,30.00,South,178,0.0,1.0,90,0.00,,,0.00,weatherlink.com 1.10,2013-02-15 10:15:00,
2013-02-15 05:30:00,36.9,34.0,30.00,South,178,0.0,1.0,90,0.00,,,0.00,weatherlink.com 1.10,2013-02-15 10:30:00,
2013-02-15 05:45:00,37.0,35.0,30.01,South,178,0.0,3.0,91,0.00,,,0.00,weatherlink.com 1.10,2013-02-15 10:45:00,
2013-02-15 06:00:00,37.0,34.0,30.01,South,178,0.0,0.0,90,0.00,,,0.00,weatherlink.com 1.10,2013-02-15 11:00:00,
2013-02-15 06:15:00,36.8,34.0,30.01,South,178,0.0,0.0,90,0.00,,,0.00,weatherlink.com 1.10,2013-02-15 11:15:00,
2013-02-15 06:30:00,36.6,34.0,30.02,South,178,0.0,2.0,91,0.00,,,0.00,weatherlink.com 1.10,2013-02-15 11:30:00,
2013-02-15 06:45:00,37.2,35.0,30.02,South,178,1.0,3.0,90,0.00,,,0.00,weatherlink.com 1.10,2013-02-15 11:45:00,
2013-02-15 07:00:00,37.5,35.0,30.02,South,178,0.0,2.0,89,0.00,,,0.00,weatherlink.com 1.10,2013-02-15 12:00:00,
2013-02-15 07:15:00,37.3,34.0,30.02,South,178,1.0,2.0,89,0.00,,,0.00,weatherlink.com 1.10,2013-02-15 12:15:00,
2013-02-15 07:30:00,36.5,34.0,30.03,South,178,0.0,1.0,90,0.00,,,0.00,weatherlink.com 1.10,2013-02-15 12:30:00,
2013-02-15 07:45:00,36.2,34.0,30.03,South,178,0.0,0.0,91,0.00,,,0.00,weatherlink.com 1.10,2013-02-15 12:45:00,
2013-02-15 08:00:00,36.6,35.0,30.03,South,178,0.0,0.0,93,0.00,,,0.00,weatherlink.com 1.10,2013-02-15 13:00:00,
2013-02-15 08:15:00,38.1,36.0,30.04,South,178,0.0,3.0,90,0.00,,,0.00,weatherlink.com 1.10,2013-02-15 13:15:00,
2013-02-15 08:30:00,39.5,36.0,30.04,South,184,1.0,3.0,86,0.00,,,0.00,weatherlink.com 1.10,2013-02-15 13:30:00,
2013-02-15 08:45:00,40.6,36.0,30.04,South,175,3.0,4.0,82,0.00,,,0.00,weatherlink.com 1.10,2013-02-15 13:45:00,
2013-02-15 09:00:00,41.7,36.0,30.04,South,177,1.0,4.0,80,0.00,,,0.00,weatherlink.com 1.10,2013-02-15 14:00:00,
2013-02-15 09:15:00,42.6,36.0,30.04,South,178,1.0,5.0,78,0.00,,,0.00,weatherlink.com 1.10,2013-02-15 14:15:00,
2013-02-15 09:31:00,43.5,36.0,30.04,South,174,0.0,3.0,76,0.00,,,0.00,weatherlink.com 1.10,2013-02-15 14:31:00,
2013-02-15 09:46:00,44.4,37.0,30.04,SSW,209,0.0,4.0,74,0.00,,,0.00,weatherlink.com 1.10,2013-02-15 14:46:00,
2013-02-15 10:01:00,45.0,36.0,30.05,SSW,202,1.0,4.0,72,0.00,,,0.00,weatherlink.com 1.10,2013-02-15 15:01:00,
2013-02-15 10:16:00,45.3,36.0,30.05,South,190,0.0,5.0,69,0.00,,,0.00,weatherlink.com 1.10,2013-02-15 15:16:00,
2013-02-15 10:31:00,46.0,37.0,30.05,South,180,0.0,4.0,70,0.00,,,0.00,weatherlink.com 1.10,2013-02-15 15:31:00,
2013-02-15 10:46:00,46.7,37.0,30.05,South,174,2.0,4.0,70,0.00,,,0.00,weatherlink.com 1.10,2013-02-15 15:46:00,
2013-02-15 11:01:00,47.0,36.0,30.03,East,101,2.0,4.0,67,0.00,,,0.00,weatherlink.com 1.10,2013-02-15 16:01:00,
2013-02-15 11:16:00,47.8,38.0,30.03,SE,133,0.0,3.0,68,0.00,,,0.00,weatherlink.com 1.10,2013-02-15 16:16:00,
2013-02-15 11:31:00,47.4,37.0,30.02,East,95,3.0,6.0,67,0.00,,,0.00,weatherlink.com 1.10,2013-02-15 16:31:00,
2013-02-15 11:46:00,47.8,36.0,30.02,East,90,2.0,5.0,65,0.00,,,0.00,weatherlink.com 1.10,2013-02-15 16:46:00,
2013-02-15 12:01:00,48.5,37.0,30.01,SE,146,1.0,3.0,65,0.00,,,0.00,weatherlink.com 1.10,2013-02-15 17:01:00,
2013-02-15 12:16:00,48.7,38.0,30.00,East,100,2.0,3.0,66,0.00,,,0.00,weatherlink.com 1.10,2013-02-15 17:16:00,
2013-02-15 12:31:00,49.1,37.0,29.99,East,100,3.0,5.0,63,0.00,,,0.00,weatherlink.com 1.10,2013-02-15 17:31:00,
2013-02-15 12:46:00,50.0,36.0,29.98,East,88,1.0,5.0,60,0.00,,,0.00,weatherlink.com 1.10,2013-02-15 17:46:00,
2013-02-15 13:01:00,50.9,36.0,29.97,East,90,2.0,3.0,58,0.00,,,0.00,weatherlink.com 1.10,2013-02-15 18:01:00,
2013-02-15 13:16:00,51.7,38.0,29.96,East,84,3.0,6.0,59,0.00,,,0.00,weatherlink.com 1.10,2013-02-15 18:16:00,
2013-02-15 13:31:00,53.5,38.0,29.95,SE,138,0.0,5.0,57,0.00,,,0.00,weatherlink.com 1.10,2013-02-15 18:31:00,
2013-02-15 13:46:00,54.2,37.0,29.95,East,96,1.0,5.0,53,0.00,,,0.00,weatherlink.com 1.10,2013-02-15 18:46:00,
2013-02-15 14:01:00,54.1,37.0,29.94,ESE,121,1.0,5.0,53,0.00,,,0.00,weatherlink.com 1.10,2013-02-15 19:01:00,
2013-02-15 14:16:00,54.8,37.0,29.93,SSE,167,2.0,5.0,52,0.00,,,0.00,weatherlink.com 1.10,2013-02-15 19:16:00,
2013-02-15 14:31:00,57.3,38.0,29.93,South,171,1.0,5.0,48,0.00,,,0.00,weatherlink.com 1.10,2013-02-15 19:31:00,
2013-02-15 14:46:00,57.7,38.0,29.93,SE,140,2.0,4.0,48,0.00,,,0.00,weatherlink.com 1.10,2013-02-15 19:46:00,
2013-02-15 15:01:00,58.0,37.0,29.93,SE,135,2.0,4.0,46,0.00,,,0.00,weatherlink.com 1.10,2013-02-15 20:01:00,
2013-02-15 15:16:00,57.9,38.0,29.93,South,184,0.0,4.0,48,0.00,,,0.00,weatherlink.com 1.10,2013-02-15 20:16:00,
2013-02-15 15:32:00,57.6,38.0,29.93,South,184,2.0,7.0,49,0.00,,,0.00,weatherlink.com 1.10,2013-02-15 20:32:00,
2013-02-15 15:47:00,56.6,37.0,29.92,South,184,1.0,7.0,48,0.00,,,0.00,weatherlink.com 1.10,2013-02-15 20:47:00,
2013-02-15 16:02:00,56.2,38.0,29.92,SE,145,0.0,3.0,51,0.00,,,0.00,weatherlink.com 1.10,2013-02-15 21:02:00,
2013-02-15 16:17:00,55.7,38.0,29.92,SSE,167,0.0,5.0,52,0.00,,,0.00,weatherlink.com 1.10,2013-02-15 21:17:00,
2013-02-15 16:32:00,55.5,38.0,29.91,SSE,165,0.0,3.0,52,0.00,,,0.00,weatherlink.com 1.10,2013-02-15 21:32:00,
2013-02-15 16:47:00,55.0,38.0,29.91,South,175,0.0,3.0,54,0.00,,,0.00,weatherlink.com 1.10,2013-02-15 21:47:00,
2013-02-15 17:02:00,53.7,39.0,29.91,South,175,0.0,2.0,58,0.00,,,0.00,weatherlink.com 1.10,2013-02-15 22:02:00,
2013-02-15 17:17:00,52.3,39.0,29.90,SSE,167,1.0,2.0,60,0.00,,,0.00,weatherlink.com 1.10,2013-02-15 22:17:00,
2013-02-15 17:32:00,51.2,39.0,29.90,SSE,155,0.0,1.0,63,0.00,,,0.00,weatherlink.com 1.10,2013-02-15 22:32:00,
2013-02-15 17:47:00,50.1,39.0,29.90,SSE,148,0.0,1.0,65,0.00,,,0.00,weatherlink.com 1.10,2013-02-15 22:47:00,
2013-02-15 18:02:00,49.1,38.0,29.90,SSE,148,0.0,1.0,67,0.00,,,0.00,weatherlink.com 1.10,2013-02-15 23:02:00,
2013-02-15 18:17:00,47.7,39.0,29.90,SSE,148,0.0,2.0,71,0.00,,,0.00,weatherlink.com 1.10,2013-02-15 23:17:00,
2013-02-15 18:32:00,46.8,39.0,29.90,SSE,148,0.0,1.0,74,0.00,,,0.00,weatherlink.com 1.10,2013-02-15 23:32:00,
2013-02-15 18:47:00,46.3,39.0,29.89,SE,130,0.0,2.0,75,0.00,,,0.00,weatherlink.com 1.10,2013-02-15 23:47:00,
2013-02-15 19:02:00,45.8,38.0,29.90,SE,144,0.0,0.0,73,0.00,,,0.00,weatherlink.com 1.10,2013-02-16 00:02:00,
2013-02-15 19:17:00,45.9,37.0,29.90,SSE,156,0.0,1.0,70,0.00,,,0.00,weatherlink.com 1.10,2013-02-16 00:17:00,
2013-02-15 19:32:00,46.4,37.0,29.91,SSW,202,0.0,2.0,69,0.00,,,0.00,weatherlink.com 1.10,2013-02-16 00:32:00,
2013-02-15 19:47:00,47.0,37.0,29.92,South,184,1.0,6.0,69,0.00,,,0.00,weatherlink.com 1.10,2013-02-16 00:47:00,
2013-02-15 20:02:00,46.1,38.0,29.92,SSW,203,0.0,4.0,72,0.00,,,0.00,weatherlink.com 1.10,2013-02-16 01:02:00,
2013-02-15 20:17:00,45.5,38.0,29.93,South,189,1.0,2.0,76,0.00,,,0.00,weatherlink.com 1.10,2013-02-16 01:17:00,
2013-02-15 20:32:00,45.0,39.0,29.94,South,187,0.0,3.0,78,0.00,,,0.00,weatherlink.com 1.10,2013-02-16 01:32:00,
2013-02-15 20:47:00,44.3,39.0,29.97,WNW,285,2.0,3.0,80,0.00,,,0.00,weatherlink.com 1.10,2013-02-16 01:47:00,
2013-02-15 21:02:00,44.0,37.0,29.97,WNW,300,3.0,6.0,75,0.00,,,0.00,weatherlink.com 1.10,2013-02-16 02:02:00,
2013-02-15 21:17:00,43.6,37.0,29.98,WNW,298,3.0,8.0,76,0.00,,,0.00,weatherlink.com 1.10,2013-02-16 02:17:00,
2013-02-15 21:32:00,43.2,36.0,29.99,West,269,1.0,10.0,77,0.00,,,0.00,weatherlink.com 1.10,2013-02-16 02:32:00,
2013-02-15 21:47:00,42.7,36.0,30.00,NW,308,0.0,7.0,78,0.00,,,0.00,weatherlink.com 1.10,2013-02-16 02:47:00,
2013-02-15 22:02:00,42.2,35.0,30.02,NNW,336,2.0,10.0,76,0.00,,,0.00,weatherlink.com 1.10,2013-02-16 03:02:00,
2013-02-15 22:17:00,41.7,35.0,30.01,NW,323,2.0,8.0,77,0.00,,,0.00,weatherlink.com 1.10,2013-02-16 03:17:00,
2013-02-15 22:32:00,41.2,35.0,30.02,NW,309,3.0,7.0,78,0.00,,,0.00,weatherlink.com 1.10,2013-02-16 03:32:00,
2013-02-15 22:47:00,40.9,35.0,30.02,WNW,294,2.0,5.0,79,0.00,,,0.00,weatherlink.com 1.10,2013-02-16 03:47:00,
2013-02-15 23:02:00,40.2,35.0,30.02,NW,309,2.0,7.0,81,0.00,,,0.00,weatherlink.com 1.10,2013-02-16 04:02:00,
2013-02-15 23:17:00,39.5,35.0,30.02,NW,314,2.0,5.0,84,0.00,,,0.00,weatherlink.com 1.10,2013-02-16 04:17:00,
2013-02-15 23:32:00,38.8,34.0,30.01,NNW,341,3.0,8.0,84,0.00,,,0.00,weatherlink.com 1.10,2013-02-16 04:32:00,
2013-02-15 23:47:00,38.4,35.0,30.01,NW,323,3.0,7.0,86,0.00,,,0.00,weatherlink.com 1.10,2013-02-16 04:47:00,